sensor_id;sensor_type;location;lat;lon;timestamp;P1;durP1;ratioP1;P2;durP2;ratioP2
2486;SDS011;1254;49.144;8.212;2023-10-08T00:00:48;5.13;;;4.63;;
2486;SDS011;1254;49.144;8.212;2023-10-08T00:03:17;6.73;;;4.70;;
2486;SDS011;1254;49.144;8.212;2023-10-08T00:05:48;6.03;;;4.63;;
2486;SDS011;1254;49.144;8.212;2023-10-08T00:08:17;6.33;;;5.53;;
2486;SDS011;1254;49.144;8.212;2023-10-08T00:10:46;7.67;;;5.63;;
2486;SDS011;1254;49.144;8.212;2023-10-08T00:13:15;8.00;;;5.10;;
2486;SDS011;1254;49.144;8.212;2023-10-08T00:15:44;5.47;;;4.80;;
2486;SDS011;1254;49.144;8.212;2023-10-08T00:18:20;5.73;;;5.13;;
2486;SDS011;1254;49.144;8.212;2023-10-08T00:20:49;8.67;;;4.60;;
2486;SDS011;1254;49.144;8.212;2023-10-08T00:23:24;4.93;;;4.20;;
2486;SDS011;1254;49.144;8.212;2023-10-08T00:25:53;5.53;;;5.13;;
2486;SDS011;1254;49.144;8.212;2023-10-08T00:28:21;5.10;;;4.70;;
2486;SDS011;1254;49.144;8.212;2023-10-08T00:30:50;5.33;;;4.83;;
2486;SDS011;1254;49.144;8.212;2023-10-08T00:33:21;8.30;;;6.30;;
2486;SDS011;1254;49.144;8.212;2023-10-08T00:35:50;7.00;;;5.13;;
2486;SDS011;1254;49.144;8.212;2023-10-08T00:38:18;8.50;;;5.20;;
2486;SDS011;1254;49.144;8.212;2023-10-08T00:40:47;7.50;;;5.20;;
2486;SDS011;1254;49.144;8.212;2023-10-08T00:43:31;5.93;;;5.27;;
2486;SDS011;1254;49.144;8.212;2023-10-08T00:46:01;8.33;;;5.00;;
2486;SDS011;1254;49.144;8.212;2023-10-08T00:48:44;6.97;;;4.80;;
2486;SDS011;1254;49.144;8.212;2023-10-08T00:51:13;4.90;;;4.40;;
2486;SDS011;1254;49.144;8.212;2023-10-08T00:53:54;4.83;;;4.33;;
2486;SDS011;1254;49.144;8.212;2023-10-08T00:56:25;5.90;;;4.77;;
2486;SDS011;1254;49.144;8.212;2023-10-08T00:59:11;4.83;;;4.43;;
2486;SDS011;1254;49.144;8.212;2023-10-08T01:01:42;4.73;;;4.27;;
2486;SDS011;1254;49.144;8.212;2023-10-08T01:04:18;7.23;;;4.87;;
2486;SDS011;1254;49.144;8.212;2023-10-08T01:06:49;4.70;;;4.27;;
2486;SDS011;1254;49.144;8.212;2023-10-08T01:09:21;8.40;;;5.13;;
2486;SDS011;1254;49.144;8.212;2023-10-08T01:12:07;5.90;;;4.07;;
2486;SDS011;1254;49.144;8.212;2023-10-08T01:14:38;4.57;;;4.10;;
2486;SDS011;1254;49.144;8.212;2023-10-08T01:17:09;5.17;;;4.67;;
2486;SDS011;1254;49.144;8.212;2023-10-08T01:19:47;5.17;;;4.57;;
2486;SDS011;1254;49.144;8.212;2023-10-08T01:22:22;5.03;;;4.13;;
2486;SDS011;1254;49.144;8.212;2023-10-08T01:24:55;5.40;;;4.10;;
2486;SDS011;1254;49.144;8.212;2023-10-08T01:27:23;6.70;;;4.17;;
2486;SDS011;1254;49.144;8.212;2023-10-08T01:29:54;5.50;;;4.73;;
2486;SDS011;1254;49.144;8.212;2023-10-08T01:32:34;6.43;;;5.30;;
2486;SDS011;1254;49.144;8.212;2023-10-08T01:35:03;5.90;;;5.00;;
2486;SDS011;1254;49.144;8.212;2023-10-08T01:37:49;4.80;;;4.03;;
2486;SDS011;1254;49.144;8.212;2023-10-08T01:40:18;5.60;;;4.37;;
2486;SDS011;1254;49.144;8.212;2023-10-08T01:42:46;6.13;;;4.20;;
2486;SDS011;1254;49.144;8.212;2023-10-08T01:45:18;5.70;;;4.10;;
2486;SDS011;1254;49.144;8.212;2023-10-08T01:47:50;8.80;;;4.20;;
2486;SDS011;1254;49.144;8.212;2023-10-08T01:50:21;5.70;;;4.03;;
2486;SDS011;1254;49.144;8.212;2023-10-08T01:52:52;4.63;;;3.80;;
2486;SDS011;1254;49.144;8.212;2023-10-08T01:55:20;5.80;;;4.23;;
2486;SDS011;1254;49.144;8.212;2023-10-08T01:57:49;6.03;;;4.00;;
2486;SDS011;1254;49.144;8.212;2023-10-08T02:00:18;5.80;;;4.20;;
2486;SDS011;1254;49.144;8.212;2023-10-08T02:02:49;13.17;;;5.10;;
2486;SDS011;1254;49.144;8.212;2023-10-08T02:05:18;5.00;;;4.07;;
2486;SDS011;1254;49.144;8.212;2023-10-08T02:07:47;7.23;;;4.13;;
2486;SDS011;1254;49.144;8.212;2023-10-08T02:10:18;4.40;;;3.87;;
2486;SDS011;1254;49.144;8.212;2023-10-08T02:12:48;10.70;;;5.27;;
2486;SDS011;1254;49.144;8.212;2023-10-08T02:15:16;7.80;;;4.10;;
2486;SDS011;1254;49.144;8.212;2023-10-08T02:17:44;5.83;;;4.20;;
2486;SDS011;1254;49.144;8.212;2023-10-08T02:20:14;5.07;;;3.87;;
2486;SDS011;1254;49.144;8.212;2023-10-08T02:22:43;5.00;;;3.80;;
2486;SDS011;1254;49.144;8.212;2023-10-08T02:25:11;6.40;;;4.50;;
2486;SDS011;1254;49.144;8.212;2023-10-08T02:27:41;6.33;;;4.20;;
2486;SDS011;1254;49.144;8.212;2023-10-08T02:30:10;5.57;;;4.10;;
2486;SDS011;1254;49.144;8.212;2023-10-08T02:32:38;5.07;;;4.57;;
2486;SDS011;1254;49.144;8.212;2023-10-08T02:35:09;12.03;;;4.70;;
2486;SDS011;1254;49.144;8.212;2023-10-08T02:37:39;5.40;;;3.57;;
2486;SDS011;1254;49.144;8.212;2023-10-08T02:40:07;4.33;;;3.90;;
2486;SDS011;1254;49.144;8.212;2023-10-08T02:42:54;8.77;;;4.30;;
2486;SDS011;1254;49.144;8.212;2023-10-08T02:45:24;9.03;;;4.00;;
2486;SDS011;1254;49.144;8.212;2023-10-08T02:47:53;3.53;;;3.23;;
2486;SDS011;1254;49.144;8.212;2023-10-08T02:50:21;6.80;;;4.57;;
2486;SDS011;1254;49.144;8.212;2023-10-08T02:52:50;6.50;;;4.40;;
2486;SDS011;1254;49.144;8.212;2023-10-08T02:55:18;12.13;;;4.50;;
2486;SDS011;1254;49.144;8.212;2023-10-08T02:57:55;6.27;;;4.60;;
2486;SDS011;1254;49.144;8.212;2023-10-08T03:00:24;4.83;;;4.17;;
2486;SDS011;1254;49.144;8.212;2023-10-08T03:02:56;6.77;;;4.30;;
2486;SDS011;1254;49.144;8.212;2023-10-08T03:05:27;7.40;;;4.17;;
2486;SDS011;1254;49.144;8.212;2023-10-08T03:07:57;7.23;;;3.60;;
2486;SDS011;1254;49.144;8.212;2023-10-08T03:10:26;5.37;;;3.67;;
2486;SDS011;1254;49.144;8.212;2023-10-08T03:13:01;9.03;;;4.97;;
2486;SDS011;1254;49.144;8.212;2023-10-08T03:15:32;4.03;;;3.60;;
2486;SDS011;1254;49.144;8.212;2023-10-08T03:18:12;6.93;;;3.90;;
2486;SDS011;1254;49.144;8.212;2023-10-08T03:20:41;8.97;;;4.47;;
2486;SDS011;1254;49.144;8.212;2023-10-08T03:23:11;4.83;;;4.13;;
2486;SDS011;1254;49.144;8.212;2023-10-08T03:25:51;7.63;;;4.20;;
2486;SDS011;1254;49.144;8.212;2023-10-08T03:28:26;7.67;;;4.40;;
2486;SDS011;1254;49.144;8.212;2023-10-08T03:30:55;5.57;;;4.20;;
2486;SDS011;1254;49.144;8.212;2023-10-08T03:33:30;7.47;;;4.40;;
2486;SDS011;1254;49.144;8.212;2023-10-08T03:36:01;5.33;;;4.27;;
2486;SDS011;1254;49.144;8.212;2023-10-08T03:38:38;7.83;;;4.10;;
2486;SDS011;1254;49.144;8.212;2023-10-08T03:41:17;4.87;;;4.00;;
2486;SDS011;1254;49.144;8.212;2023-10-08T03:43:48;6.23;;;4.73;;
2486;SDS011;1254;49.144;8.212;2023-10-08T03:46:24;7.20;;;5.00;;
2486;SDS011;1254;49.144;8.212;2023-10-08T03:48:52;4.40;;;3.70;;
2486;SDS011;1254;49.144;8.212;2023-10-08T03:51:23;7.63;;;5.20;;
2486;SDS011;1254;49.144;8.212;2023-10-08T03:53:53;6.67;;;4.23;;
2486;SDS011;1254;49.144;8.212;2023-10-08T03:56:25;6.67;;;4.70;;
2486;SDS011;1254;49.144;8.212;2023-10-08T03:58:57;7.00;;;4.77;;
2486;SDS011;1254;49.144;8.212;2023-10-08T04:01:27;5.20;;;4.50;;
2486;SDS011;1254;49.144;8.212;2023-10-08T04:03:58;10.43;;;4.67;;
2486;SDS011;1254;49.144;8.212;2023-10-08T04:06:27;7.67;;;5.63;;
2486;SDS011;1254;49.144;8.212;2023-10-08T04:08:56;11.83;;;5.03;;
2486;SDS011;1254;49.144;8.212;2023-10-08T04:11:37;8.83;;;5.37;;
2486;SDS011;1254;49.144;8.212;2023-10-08T04:14:19;5.00;;;4.50;;
2486;SDS011;1254;49.144;8.212;2023-10-08T04:16:48;5.33;;;4.67;;
2486;SDS011;1254;49.144;8.212;2023-10-08T04:19:18;9.47;;;4.90;;
2486;SDS011;1254;49.144;8.212;2023-10-08T04:21:47;5.33;;;4.60;;
2486;SDS011;1254;49.144;8.212;2023-10-08T04:24:20;6.87;;;5.20;;
2486;SDS011;1254;49.144;8.212;2023-10-08T04:26:55;4.93;;;4.40;;
2486;SDS011;1254;49.144;8.212;2023-10-08T04:29:29;8.87;;;4.30;;
2486;SDS011;1254;49.144;8.212;2023-10-08T04:31:59;9.23;;;4.97;;
2486;SDS011;1254;49.144;8.212;2023-10-08T04:34:35;8.27;;;4.57;;
2486;SDS011;1254;49.144;8.212;2023-10-08T04:37:03;5.40;;;4.67;;
2486;SDS011;1254;49.144;8.212;2023-10-08T04:39:38;6.90;;;4.73;;
2486;SDS011;1254;49.144;8.212;2023-10-08T04:42:13;9.80;;;5.30;;
2486;SDS011;1254;49.144;8.212;2023-10-08T04:44:42;7.60;;;4.70;;
2486;SDS011;1254;49.144;8.212;2023-10-08T04:47:10;5.87;;;4.33;;
2486;SDS011;1254;49.144;8.212;2023-10-08T04:49:57;6.43;;;4.60;;
2486;SDS011;1254;49.144;8.212;2023-10-08T04:52:29;5.70;;;4.80;;
2486;SDS011;1254;49.144;8.212;2023-10-08T04:55:00;5.93;;;5.23;;
2486;SDS011;1254;49.144;8.212;2023-10-08T04:57:38;5.03;;;4.37;;
2486;SDS011;1254;49.144;8.212;2023-10-08T05:00:10;6.50;;;4.80;;
2486;SDS011;1254;49.144;8.212;2023-10-08T05:02:41;6.83;;;5.07;;
2486;SDS011;1254;49.144;8.212;2023-10-08T05:05:16;5.20;;;4.23;;
2486;SDS011;1254;49.144;8.212;2023-10-08T05:07:58;5.93;;;4.23;;
2486;SDS011;1254;49.144;8.212;2023-10-08T05:10:54;6.47;;;4.50;;
2486;SDS011;1254;49.144;8.212;2023-10-08T05:13:41;8.03;;;4.30;;
2486;SDS011;1254;49.144;8.212;2023-10-08T05:16:33;7.37;;;4.77;;
2486;SDS011;1254;49.144;8.212;2023-10-08T05:19:10;6.83;;;5.10;;
2486;SDS011;1254;49.144;8.212;2023-10-08T05:22:14;7.40;;;5.07;;
2486;SDS011;1254;49.144;8.212;2023-10-08T05:25:05;8.00;;;5.00;;
2486;SDS011;1254;49.144;8.212;2023-10-08T05:27:34;12.53;;;4.90;;
2486;SDS011;1254;49.144;8.212;2023-10-08T05:30:23;7.60;;;3.90;;
2486;SDS011;1254;49.144;8.212;2023-10-08T05:32:56;5.67;;;5.10;;
2486;SDS011;1254;49.144;8.212;2023-10-08T05:35:39;9.47;;;5.00;;
2486;SDS011;1254;49.144;8.212;2023-10-08T05:38:16;10.93;;;4.27;;
2486;SDS011;1254;49.144;8.212;2023-10-08T05:40:49;9.23;;;4.43;;
2486;SDS011;1254;49.144;8.212;2023-10-08T05:43:31;6.90;;;4.67;;
2486;SDS011;1254;49.144;8.212;2023-10-08T05:46:28;9.73;;;4.47;;
2486;SDS011;1254;49.144;8.212;2023-10-08T05:49:14;7.10;;;4.97;;
2486;SDS011;1254;49.144;8.212;2023-10-08T05:51:52;13.83;;;6.73;;
2486;SDS011;1254;49.144;8.212;2023-10-08T05:54:51;7.13;;;4.33;;
2486;SDS011;1254;49.144;8.212;2023-10-08T05:57:42;10.50;;;5.17;;
2486;SDS011;1254;49.144;8.212;2023-10-08T06:00:18;9.37;;;4.33;;
2486;SDS011;1254;49.144;8.212;2023-10-08T06:03:04;9.60;;;4.90;;
2486;SDS011;1254;49.144;8.212;2023-10-08T06:05:59;10.57;;;5.20;;
2486;SDS011;1254;49.144;8.212;2023-10-08T06:08:45;5.60;;;4.60;;
2486;SDS011;1254;49.144;8.212;2023-10-08T06:11:33;9.93;;;4.53;;
2486;SDS011;1254;49.144;8.212;2023-10-08T06:14:10;7.20;;;4.70;;
2486;SDS011;1254;49.144;8.212;2023-10-08T06:16:54;5.47;;;3.80;;
2486;SDS011;1254;49.144;8.212;2023-10-08T06:19:39;6.50;;;5.27;;
2486;SDS011;1254;49.144;8.212;2023-10-08T06:22:08;7.87;;;4.93;;
2486;SDS011;1254;49.144;8.212;2023-10-08T06:24:36;6.57;;;4.87;;
2486;SDS011;1254;49.144;8.212;2023-10-08T06:27:05;6.80;;;4.40;;
2486;SDS011;1254;49.144;8.212;2023-10-08T06:29:33;8.30;;;3.73;;
2486;SDS011;1254;49.144;8.212;2023-10-08T06:32:01;4.70;;;4.20;;
2486;SDS011;1254;49.144;8.212;2023-10-08T06:34:30;10.53;;;4.87;;
2486;SDS011;1254;49.144;8.212;2023-10-08T06:36:58;5.63;;;4.30;;
2486;SDS011;1254;49.144;8.212;2023-10-08T06:39:29;4.53;;;4.10;;
2486;SDS011;1254;49.144;8.212;2023-10-08T06:42:13;30.60;;;25.10;;
2486;SDS011;1254;49.144;8.212;2023-10-08T06:44:42;18.47;;;16.57;;
2486;SDS011;1254;49.144;8.212;2023-10-08T06:47:14;11.50;;;7.80;;
2486;SDS011;1254;49.144;8.212;2023-10-08T06:49:43;10.87;;;5.80;;
2486;SDS011;1254;49.144;8.212;2023-10-08T06:52:12;7.87;;;5.10;;
2486;SDS011;1254;49.144;8.212;2023-10-08T06:54:41;6.93;;;5.27;;
2486;SDS011;1254;49.144;8.212;2023-10-08T06:57:10;10.73;;;4.67;;
2486;SDS011;1254;49.144;8.212;2023-10-08T06:59:39;9.80;;;5.40;;
2486;SDS011;1254;49.144;8.212;2023-10-08T07:02:08;9.17;;;5.10;;
2486;SDS011;1254;49.144;8.212;2023-10-08T07:04:41;6.57;;;4.60;;
2486;SDS011;1254;49.144;8.212;2023-10-08T07:07:12;6.13;;;4.00;;
2486;SDS011;1254;49.144;8.212;2023-10-08T07:09:46;7.53;;;5.10;;
2486;SDS011;1254;49.144;8.212;2023-10-08T07:12:17;5.50;;;4.30;;
2486;SDS011;1254;49.144;8.212;2023-10-08T07:14:46;10.67;;;5.10;;
2486;SDS011;1254;49.144;8.212;2023-10-08T07:17:14;9.83;;;5.20;;
2486;SDS011;1254;49.144;8.212;2023-10-08T07:19:45;7.67;;;4.70;;
2486;SDS011;1254;49.144;8.212;2023-10-08T07:22:16;7.90;;;4.53;;
2486;SDS011;1254;49.144;8.212;2023-10-08T07:24:49;6.13;;;4.70;;
2486;SDS011;1254;49.144;8.212;2023-10-08T07:27:17;8.03;;;5.23;;
2486;SDS011;1254;49.144;8.212;2023-10-08T07:29:47;7.73;;;4.70;;
2486;SDS011;1254;49.144;8.212;2023-10-08T07:32:15;6.90;;;4.97;;
2486;SDS011;1254;49.144;8.212;2023-10-08T07:34:45;5.73;;;4.67;;
2486;SDS011;1254;49.144;8.212;2023-10-08T07:37:13;5.00;;;4.50;;
2486;SDS011;1254;49.144;8.212;2023-10-08T07:39:42;5.87;;;5.00;;
2486;SDS011;1254;49.144;8.212;2023-10-08T07:42:14;7.60;;;5.50;;
2486;SDS011;1254;49.144;8.212;2023-10-08T07:44:42;7.13;;;4.70;;
2486;SDS011;1254;49.144;8.212;2023-10-08T07:47:11;5.63;;;4.07;;
2486;SDS011;1254;49.144;8.212;2023-10-08T07:49:41;5.03;;;4.53;;
2486;SDS011;1254;49.144;8.212;2023-10-08T07:52:10;5.33;;;4.40;;
2486;SDS011;1254;49.144;8.212;2023-10-08T07:54:41;5.80;;;4.83;;
2486;SDS011;1254;49.144;8.212;2023-10-08T07:57:10;7.53;;;5.20;;
2486;SDS011;1254;49.144;8.212;2023-10-08T07:59:42;10.23;;;5.00;;
2486;SDS011;1254;49.144;8.212;2023-10-08T08:02:13;9.33;;;4.97;;
2486;SDS011;1254;49.144;8.212;2023-10-08T08:04:43;5.20;;;4.70;;
2486;SDS011;1254;49.144;8.212;2023-10-08T08:07:11;6.40;;;4.83;;
2486;SDS011;1254;49.144;8.212;2023-10-08T08:09:42;11.60;;;5.00;;
2486;SDS011;1254;49.144;8.212;2023-10-08T08:12:16;11.10;;;5.00;;
2486;SDS011;1254;49.144;8.212;2023-10-08T08:14:46;9.80;;;4.50;;
2486;SDS011;1254;49.144;8.212;2023-10-08T08:17:15;9.50;;;5.40;;
2486;SDS011;1254;49.144;8.212;2023-10-08T08:19:44;10.90;;;5.60;;
2486;SDS011;1254;49.144;8.212;2023-10-08T08:22:13;7.63;;;4.60;;
2486;SDS011;1254;49.144;8.212;2023-10-08T08:24:47;7.37;;;4.60;;
2486;SDS011;1254;49.144;8.212;2023-10-08T08:27:19;6.17;;;4.87;;
2486;SDS011;1254;49.144;8.212;2023-10-08T08:29:53;7.53;;;5.07;;
2486;SDS011;1254;49.144;8.212;2023-10-08T08:32:21;5.90;;;4.33;;
2486;SDS011;1254;49.144;8.212;2023-10-08T08:34:50;9.43;;;4.60;;
2486;SDS011;1254;49.144;8.212;2023-10-08T08:37:18;8.43;;;5.13;;
2486;SDS011;1254;49.144;8.212;2023-10-08T08:39:48;8.83;;;5.10;;
2486;SDS011;1254;49.144;8.212;2023-10-08T08:42:17;6.30;;;5.00;;
2486;SDS011;1254;49.144;8.212;2023-10-08T08:44:49;7.50;;;5.40;;
2486;SDS011;1254;49.144;8.212;2023-10-08T08:47:19;5.87;;;5.20;;
2486;SDS011;1254;49.144;8.212;2023-10-08T08:49:51;9.17;;;5.63;;
2486;SDS011;1254;49.144;8.212;2023-10-08T08:52:21;5.80;;;5.30;;
2486;SDS011;1254;49.144;8.212;2023-10-08T08:54:49;6.30;;;5.70;;
2486;SDS011;1254;49.144;8.212;2023-10-08T08:57:18;6.70;;;6.20;;
2486;SDS011;1254;49.144;8.212;2023-10-08T08:59:49;5.27;;;4.40;;
2486;SDS011;1254;49.144;8.212;2023-10-08T09:02:20;13.50;;;5.70;;
2486;SDS011;1254;49.144;8.212;2023-10-08T09:04:48;10.60;;;5.90;;
2486;SDS011;1254;49.144;8.212;2023-10-08T09:07:20;11.48;;;5.45;;
2486;SDS011;1254;49.144;8.212;2023-10-08T09:09:48;9.00;;;6.27;;
2486;SDS011;1254;49.144;8.212;2023-10-08T09:12:17;5.90;;;5.30;;
2486;SDS011;1254;49.144;8.212;2023-10-08T09:14:47;5.40;;;5.00;;
2486;SDS011;1254;49.144;8.212;2023-10-08T09:17:16;5.67;;;5.20;;
2486;SDS011;1254;49.144;8.212;2023-10-08T09:19:45;6.27;;;5.67;;
2486;SDS011;1254;49.144;8.212;2023-10-08T09:22:16;6.27;;;5.50;;
2486;SDS011;1254;49.144;8.212;2023-10-08T09:24:45;6.00;;;5.47;;
2486;SDS011;1254;49.144;8.212;2023-10-08T09:27:14;6.90;;;6.00;;
2486;SDS011;1254;49.144;8.212;2023-10-08T09:29:44;6.20;;;5.70;;
2486;SDS011;1254;49.144;8.212;2023-10-08T09:32:14;7.37;;;6.73;;
2486;SDS011;1254;49.144;8.212;2023-10-08T09:34:50;7.87;;;6.67;;
2486;SDS011;1254;49.144;8.212;2023-10-08T09:37:19;8.00;;;6.90;;
2486;SDS011;1254;49.144;8.212;2023-10-08T09:39:48;6.70;;;6.10;;
2486;SDS011;1254;49.144;8.212;2023-10-08T09:42:18;11.80;;;7.13;;
2486;SDS011;1254;49.144;8.212;2023-10-08T09:44:48;6.60;;;6.03;;
2486;SDS011;1254;49.144;8.212;2023-10-08T09:47:19;6.93;;;6.17;;
2486;SDS011;1254;49.144;8.212;2023-10-08T09:49:53;6.90;;;6.40;;
2486;SDS011;1254;49.144;8.212;2023-10-08T09:52:27;7.40;;;6.70;;
2486;SDS011;1254;49.144;8.212;2023-10-08T09:54:58;9.40;;;6.33;;
2486;SDS011;1254;49.144;8.212;2023-10-08T09:57:29;11.80;;;6.83;;
2486;SDS011;1254;49.144;8.212;2023-10-08T09:59:59;7.07;;;6.37;;
2486;SDS011;1254;49.144;8.212;2023-10-08T10:02:30;16.63;;;7.47;;
2486;SDS011;1254;49.144;8.212;2023-10-08T10:05:01;7.80;;;7.20;;
2486;SDS011;1254;49.144;8.212;2023-10-08T10:07:32;7.50;;;6.80;;
2486;SDS011;1254;49.144;8.212;2023-10-08T10:10:00;6.93;;;6.43;;
2486;SDS011;1254;49.144;8.212;2023-10-08T10:12:36;8.00;;;7.40;;
2486;SDS011;1254;49.144;8.212;2023-10-08T10:15:04;8.37;;;7.53;;
2486;SDS011;1254;49.144;8.212;2023-10-08T10:17:35;8.40;;;7.60;;
2486;SDS011;1254;49.144;8.212;2023-10-08T10:20:05;7.77;;;7.10;;
2486;SDS011;1254;49.144;8.212;2023-10-08T10:22:39;8.73;;;7.83;;
2486;SDS011;1254;49.144;8.212;2023-10-08T10:25:09;8.83;;;8.10;;
2486;SDS011;1254;49.144;8.212;2023-10-08T10:30:26;8.53;;;7.63;;
2486;SDS011;1254;49.144;8.212;2023-10-08T10:32:54;8.47;;;7.77;;
2486;SDS011;1254;49.144;8.212;2023-10-08T10:35:30;12.73;;;8.70;;
2486;SDS011;1254;49.144;8.212;2023-10-08T10:37:59;8.63;;;8.03;;
2486;SDS011;1254;49.144;8.212;2023-10-08T10:40:29;8.87;;;8.17;;
2486;SDS011;1254;49.144;8.212;2023-10-08T10:43:05;8.87;;;8.17;;
2486;SDS011;1254;49.144;8.212;2023-10-08T10:45:35;11.63;;;8.33;;
2486;SDS011;1254;49.144;8.212;2023-10-08T10:48:06;10.27;;;8.67;;
2486;SDS011;1254;49.144;8.212;2023-10-08T10:50:40;9.17;;;8.50;;
2486;SDS011;1254;49.144;8.212;2023-10-08T10:53:34;11.87;;;8.23;;
2486;SDS011;1254;49.144;8.212;2023-10-08T10:56:13;9.10;;;8.40;;
2486;SDS011;1254;49.144;8.212;2023-10-08T10:58:45;9.43;;;8.63;;
2486;SDS011;1254;49.144;8.212;2023-10-08T11:01:22;8.80;;;8.30;;
2486;SDS011;1254;49.144;8.212;2023-10-08T11:03:50;9.70;;;9.00;;
2486;SDS011;1254;49.144;8.212;2023-10-08T11:06:19;9.70;;;8.90;;
2486;SDS011;1254;49.144;8.212;2023-10-08T11:08:49;9.90;;;9.00;;
2486;SDS011;1254;49.144;8.212;2023-10-08T11:11:19;11.70;;;9.50;;
2486;SDS011;1254;49.144;8.212;2023-10-08T11:13:55;11.03;;;9.50;;
2486;SDS011;1254;49.144;8.212;2023-10-08T11:16:26;10.20;;;9.27;;
2486;SDS011;1254;49.144;8.212;2023-10-08T11:18:57;9.87;;;9.17;;
2486;SDS011;1254;49.144;8.212;2023-10-08T11:21:42;11.07;;;10.17;;
2486;SDS011;1254;49.144;8.212;2023-10-08T11:24:26;10.20;;;9.40;;
2486;SDS011;1254;49.144;8.212;2023-10-08T11:26:55;10.10;;;9.27;;
2486;SDS011;1254;49.144;8.212;2023-10-08T11:29:36;10.27;;;9.57;;
2486;SDS011;1254;49.144;8.212;2023-10-08T11:32:04;10.23;;;9.43;;
2486;SDS011;1254;49.144;8.212;2023-10-08T11:34:33;10.10;;;9.37;;
2486;SDS011;1254;49.144;8.212;2023-10-08T11:37:06;11.10;;;10.17;;
2486;SDS011;1254;49.144;8.212;2023-10-08T11:39:46;11.00;;;10.10;;
2486;SDS011;1254;49.144;8.212;2023-10-08T11:42:15;13.80;;;10.33;;
2486;SDS011;1254;49.144;8.212;2023-10-08T11:45:01;11.63;;;10.57;;
2486;SDS011;1254;49.144;8.212;2023-10-08T11:47:44;12.80;;;11.53;;
2486;SDS011;1254;49.144;8.212;2023-10-08T11:50:14;11.80;;;10.80;;
2486;SDS011;1254;49.144;8.212;2023-10-08T11:52:46;10.50;;;9.90;;
2486;SDS011;1254;49.144;8.212;2023-10-08T11:55:16;11.37;;;10.40;;
2486;SDS011;1254;49.144;8.212;2023-10-08T11:57:46;11.03;;;10.13;;
2486;SDS011;1254;49.144;8.212;2023-10-08T12:00:15;11.10;;;10.20;;
2486;SDS011;1254;49.144;8.212;2023-10-08T12:02:46;15.23;;;10.83;;
2486;SDS011;1254;49.144;8.212;2023-10-08T12:05:15;11.43;;;10.37;;
2486;SDS011;1254;49.144;8.212;2023-10-08T12:07:47;11.57;;;10.50;;
2486;SDS011;1254;49.144;8.212;2023-10-08T12:10:17;12.10;;;10.60;;
2486;SDS011;1254;49.144;8.212;2023-10-08T12:12:49;11.40;;;10.60;;
2486;SDS011;1254;49.144;8.212;2023-10-08T12:15:18;14.60;;;11.50;;
2486;SDS011;1254;49.144;8.212;2023-10-08T12:17:47;11.47;;;10.70;;
2486;SDS011;1254;49.144;8.212;2023-10-08T12:20:37;11.47;;;10.73;;
2486;SDS011;1254;49.144;8.212;2023-10-08T12:23:11;11.80;;;11.00;;
2486;SDS011;1254;49.144;8.212;2023-10-08T12:25:51;13.50;;;11.47;;
2486;SDS011;1254;49.144;8.212;2023-10-08T12:28:21;12.47;;;11.27;;
2486;SDS011;1254;49.144;8.212;2023-10-08T12:30:50;12.47;;;11.47;;
2486;SDS011;1254;49.144;8.212;2023-10-08T12:33:19;13.20;;;12.00;;
2486;SDS011;1254;49.144;8.212;2023-10-08T12:35:50;13.10;;;11.80;;
2486;SDS011;1254;49.144;8.212;2023-10-08T12:38:20;12.50;;;11.50;;
2486;SDS011;1254;49.144;8.212;2023-10-08T12:40:49;13.80;;;12.40;;
2486;SDS011;1254;49.144;8.212;2023-10-08T12:43:20;12.23;;;11.33;;
2486;SDS011;1254;49.144;8.212;2023-10-08T12:45:48;12.30;;;11.23;;
2486;SDS011;1254;49.144;8.212;2023-10-08T12:48:19;12.67;;;11.87;;
2486;SDS011;1254;49.144;8.212;2023-10-08T12:50:47;12.43;;;11.53;;
2486;SDS011;1254;49.144;8.212;2023-10-08T12:53:24;12.70;;;11.60;;
2486;SDS011;1254;49.144;8.212;2023-10-08T12:55:59;12.07;;;10.87;;
2486;SDS011;1254;49.144;8.212;2023-10-08T12:58:32;12.00;;;10.90;;
2486;SDS011;1254;49.144;8.212;2023-10-08T13:01:05;13.10;;;11.97;;
2486;SDS011;1254;49.144;8.212;2023-10-08T13:03:36;11.73;;;10.70;;
2486;SDS011;1254;49.144;8.212;2023-10-08T13:06:07;11.87;;;10.83;;
2486;SDS011;1254;49.144;8.212;2023-10-08T13:08:42;12.73;;;11.63;;
2486;SDS011;1254;49.144;8.212;2023-10-08T13:11:10;12.40;;;11.40;;
2486;SDS011;1254;49.144;8.212;2023-10-08T13:13:38;14.43;;;12.53;;
2486;SDS011;1254;49.144;8.212;2023-10-08T13:16:07;12.17;;;11.17;;
2486;SDS011;1254;49.144;8.212;2023-10-08T13:18:35;15.20;;;11.90;;
2486;SDS011;1254;49.144;8.212;2023-10-08T13:21:04;18.30;;;12.50;;
2486;SDS011;1254;49.144;8.212;2023-10-08T13:23:32;14.10;;;12.70;;
2486;SDS011;1254;49.144;8.212;2023-10-08T13:26:02;13.47;;;11.73;;
2486;SDS011;1254;49.144;8.212;2023-10-08T13:28:33;12.97;;;11.50;;
2486;SDS011;1254;49.144;8.212;2023-10-08T13:31:01;15.57;;;11.93;;
2486;SDS011;1254;49.144;8.212;2023-10-08T13:33:36;17.33;;;12.37;;
2486;SDS011;1254;49.144;8.212;2023-10-08T13:36:06;13.23;;;11.97;;
2486;SDS011;1254;49.144;8.212;2023-10-08T13:38:35;12.83;;;11.47;;
2486;SDS011;1254;49.144;8.212;2023-10-08T13:41:05;19.57;;;12.10;;
2486;SDS011;1254;49.144;8.212;2023-10-08T13:43:41;16.93;;;12.23;;
2486;SDS011;1254;49.144;8.212;2023-10-08T13:46:12;15.63;;;12.10;;
2486;SDS011;1254;49.144;8.212;2023-10-08T13:48:41;14.03;;;12.53;;
2486;SDS011;1254;49.144;8.212;2023-10-08T13:51:12;12.90;;;11.73;;
2486;SDS011;1254;49.144;8.212;2023-10-08T13:53:41;16.10;;;12.13;;
2486;SDS011;1254;49.144;8.212;2023-10-08T13:56:12;14.97;;;12.70;;
2486;SDS011;1254;49.144;8.212;2023-10-08T13:58:41;19.87;;;12.70;;
2486;SDS011;1254;49.144;8.212;2023-10-08T14:01:12;16.37;;;11.90;;
2486;SDS011;1254;49.144;8.212;2023-10-08T14:03:46;13.17;;;11.90;;
2486;SDS011;1254;49.144;8.212;2023-10-08T14:06:15;13.40;;;11.60;;
2486;SDS011;1254;49.144;8.212;2023-10-08T14:08:43;13.57;;;12.20;;
2486;SDS011;1254;49.144;8.212;2023-10-08T14:11:19;13.50;;;11.93;;
2486;SDS011;1254;49.144;8.212;2023-10-08T14:13:50;13.70;;;11.57;;
2486;SDS011;1254;49.144;8.212;2023-10-08T14:16:18;13.97;;;12.10;;
2486;SDS011;1254;49.144;8.212;2023-10-08T14:18:50;12.13;;;11.33;;
2486;SDS011;1254;49.144;8.212;2023-10-08T14:21:20;19.53;;;12.20;;
2486;SDS011;1254;49.144;8.212;2023-10-08T14:23:50;13.03;;;11.60;;
2486;SDS011;1254;49.144;8.212;2023-10-08T14:26:20;14.97;;;12.10;;
2486;SDS011;1254;49.144;8.212;2023-10-08T14:28:49;13.67;;;12.07;;
2486;SDS011;1254;49.144;8.212;2023-10-08T14:31:23;13.43;;;12.10;;
2486;SDS011;1254;49.144;8.212;2023-10-08T14:33:52;12.70;;;11.60;;
2486;SDS011;1254;49.144;8.212;2023-10-08T14:36:31;13.77;;;12.37;;
2486;SDS011;1254;49.144;8.212;2023-10-08T14:39:18;14.93;;;13.00;;
2486;SDS011;1254;49.144;8.212;2023-10-08T14:42:05;13.90;;;12.00;;
2486;SDS011;1254;49.144;8.212;2023-10-08T14:44:51;13.17;;;12.07;;
2486;SDS011;1254;49.144;8.212;2023-10-08T14:47:20;13.77;;;12.67;;
2486;SDS011;1254;49.144;8.212;2023-10-08T14:49:48;14.87;;;13.40;;
2486;SDS011;1254;49.144;8.212;2023-10-08T14:52:17;13.20;;;12.10;;
2486;SDS011;1254;49.144;8.212;2023-10-08T14:54:45;16.10;;;13.03;;
2486;SDS011;1254;49.144;8.212;2023-10-08T14:57:15;14.23;;;12.60;;
2486;SDS011;1254;49.144;8.212;2023-10-08T14:59:44;13.80;;;12.77;;
2486;SDS011;1254;49.144;8.212;2023-10-08T15:02:14;15.30;;;12.53;;
2486;SDS011;1254;49.144;8.212;2023-10-08T15:04:42;13.10;;;11.67;;
2486;SDS011;1254;49.144;8.212;2023-10-08T15:07:11;12.93;;;11.80;;
2486;SDS011;1254;49.144;8.212;2023-10-08T15:09:43;13.93;;;12.63;;
2486;SDS011;1254;49.144;8.212;2023-10-08T15:12:12;13.00;;;11.80;;
2486;SDS011;1254;49.144;8.212;2023-10-08T15:14:43;15.67;;;12.83;;
2486;SDS011;1254;49.144;8.212;2023-10-08T15:17:15;16.63;;;12.30;;
2486;SDS011;1254;49.144;8.212;2023-10-08T15:19:43;13.87;;;12.53;;
2486;SDS011;1254;49.144;8.212;2023-10-08T15:22:12;18.13;;;13.03;;
2486;SDS011;1254;49.144;8.212;2023-10-08T15:24:40;15.10;;;12.50;;
2486;SDS011;1254;49.144;8.212;2023-10-08T15:27:09;15.07;;;12.37;;
2486;SDS011;1254;49.144;8.212;2023-10-08T15:29:37;14.47;;;13.07;;
2486;SDS011;1254;49.144;8.212;2023-10-08T15:32:07;13.23;;;12.10;;
2486;SDS011;1254;49.144;8.212;2023-10-08T15:34:35;13.87;;;12.23;;
2486;SDS011;1254;49.144;8.212;2023-10-08T15:37:05;21.83;;;12.93;;
2486;SDS011;1254;49.144;8.212;2023-10-08T15:39:33;13.97;;;12.10;;